createdAt,value
2023-11-24T00:01:03.789Z,8.9
2023-11-24T00:02:17.193Z,8.8
2023-11-24T00:03:30.568Z,8.8
2023-11-24T00:04:44.910Z,8.8
2023-11-24T00:05:59.244Z,8.8
2023-11-24T00:07:13.588Z,8.8
2023-11-24T00:08:27.926Z,8.7
2023-11-24T00:09:42.324Z,8.7
2023-11-24T00:10:56.666Z,8.6
2023-11-24T00:12:11.000Z,8.6
2023-11-24T00:13:25.344Z,8.6
2023-11-24T00:14:39.683Z,8.5
2023-11-24T00:15:54.086Z,8.5
2023-11-24T00:17:08.439Z,8.6
2023-11-24T00:18:22.770Z,8.6
2023-11-24T00:19:36.151Z,8.5
2023-11-24T00:20:50.572Z,8.5
2023-11-24T00:22:04.897Z,8.5
2023-11-24T00:23:19.248Z,8.5
2023-11-24T00:24:33.569Z,8.5
2023-11-24T00:25:46.987Z,8.5
2023-11-24T00:27:01.321Z,8.5
2023-11-24T00:28:14.715Z,8.6
2023-11-24T00:29:29.047Z,8.6
2023-11-24T00:30:43.456Z,8.6
2023-11-24T00:31:57.795Z,8.6
2023-11-24T00:33:12.123Z,8.6
2023-11-24T00:34:26.471Z,8.5
2023-11-24T00:35:40.802Z,8.5
2023-11-24T00:36:55.212Z,8.5
2023-11-24T00:38:09.549Z,8.5
2023-11-24T00:39:23.890Z,8.5
2023-11-24T00:40:38.225Z,8.5
2023-11-24T00:41:52.576Z,8.5
2023-11-24T00:43:06.982Z,8.5
2023-11-24T00:44:21.309Z,8.5
2023-11-24T00:45:34.687Z,8.5
2023-11-24T00:46:48.110Z,8.5
2023-11-24T00:48:02.438Z,8.5
2023-11-24T00:49:15.818Z,8.5
2023-11-24T00:50:30.163Z,8.5
2023-11-24T00:51:44.576Z,8.5
2023-11-24T00:52:58.910Z,8.5
2023-11-24T00:54:12.310Z,8.5
2023-11-24T00:55:25.707Z,8.5
2023-11-24T00:56:40.051Z,8.4
2023-11-24T00:57:54.391Z,8.4
2023-11-24T00:59:08.725Z,8.4
2023-11-24T01:00:22.136Z,8.4
2023-11-24T01:01:36.455Z,8.3
2023-11-24T01:02:49.859Z,8.3
2023-11-24T01:04:04.196Z,8.3
2023-11-24T01:05:18.594Z,8.3
2023-11-24T01:06:32.000Z,8.3
2023-11-24T01:07:47.280Z,8.3
2023-11-24T01:09:01.606Z,8.3
2023-11-24T01:10:15.953Z,8.3
2023-11-24T01:11:30.348Z,8.3
2023-11-24T01:12:44.692Z,8.3
2023-11-24T01:13:59.029Z,8.3
2023-11-24T01:15:13.369Z,8.3
2023-11-24T01:16:27.713Z,8.3
2023-11-24T01:17:42.107Z,8.3
2023-11-24T01:18:56.462Z,8.3
2023-11-24T01:20:10.910Z,8.2
2023-11-24T01:21:25.253Z,8.2
2023-11-24T01:22:39.587Z,8.1
2023-11-24T01:23:53.990Z,8.1
2023-11-24T01:25:08.329Z,8.1
2023-11-24T01:26:21.693Z,8.1
2023-11-24T01:27:35.963Z,8
2023-11-24T01:28:50.382Z,7.9
2023-11-24T01:30:04.707Z,7.9
2023-11-24T01:31:18.981Z,7.9
2023-11-24T01:32:33.256Z,7.9
2023-11-24T01:33:47.671Z,7.9
2023-11-24T01:35:01.989Z,7.9
2023-11-24T01:36:16.272Z,7.8
2023-11-24T01:37:30.547Z,7.8
2023-11-24T01:38:44.968Z,7.8
2023-11-24T01:39:59.287Z,7.7
2023-11-24T01:41:13.567Z,7.7
2023-11-24T01:42:27.857Z,7.6
2023-11-24T01:43:42.255Z,7.6
2023-11-24T01:44:56.582Z,7.5
2023-11-24T01:46:10.855Z,7.5
2023-11-24T01:47:25.132Z,7.4
2023-11-24T01:48:39.539Z,7.4
2023-11-24T01:49:53.879Z,7.4
2023-11-24T01:51:08.156Z,7.3
2023-11-24T01:52:22.425Z,7.4
2023-11-24T01:53:36.836Z,7.3
2023-11-24T01:54:51.165Z,7.3
2023-11-24T01:56:05.450Z,7.3
2023-11-24T01:57:19.787Z,7.3
2023-11-24T01:58:34.192Z,7.2
2023-11-24T02:01:02.868Z,7.1
2023-11-24T02:02:16.266Z,7.1
2023-11-24T02:03:30.662Z,7.1
2023-11-24T02:04:45.027Z,7.2
2023-11-24T02:05:58.411Z,7.2
2023-11-24T02:07:12.752Z,7.2
2023-11-24T02:08:27.155Z,7.2
2023-11-24T02:09:41.497Z,7.1
2023-11-24T02:10:54.833Z,7.2
2023-11-24T02:12:09.130Z,7.2
2023-11-24T02:13:23.534Z,7.2
2023-11-24T02:14:37.850Z,7.2
2023-11-24T02:15:52.137Z,7.1
2023-11-24T02:17:06.425Z,7.1
2023-11-24T02:18:20.826Z,7.1
2023-11-24T02:19:35.143Z,7.1
2023-11-24T02:20:49.439Z,7.1
2023-11-24T02:22:03.704Z,7.1
2023-11-24T02:23:18.118Z,7.1
2023-11-24T02:24:32.453Z,7.1
2023-11-24T02:25:46.716Z,7.1
2023-11-24T02:27:00.995Z,7.1
2023-11-24T02:28:15.416Z,7.1
2023-11-24T02:29:29.732Z,7.1
2023-11-24T02:30:44.135Z,7.1
2023-11-24T02:31:58.475Z,7
2023-11-24T02:33:12.741Z,7.1
2023-11-24T02:34:27.154Z,7
2023-11-24T02:35:41.484Z,7
2023-11-24T02:36:55.757Z,7
2023-11-24T02:38:10.039Z,7
2023-11-24T02:39:24.447Z,7
2023-11-24T02:40:38.766Z,7.1
2023-11-24T02:41:53.053Z,7.1
2023-11-24T02:43:07.342Z,7.2
2023-11-24T02:44:21.740Z,7.2
2023-11-24T02:45:36.061Z,7.2
2023-11-24T02:46:50.344Z,7.2
2023-11-24T02:48:04.622Z,7.2
2023-11-24T02:49:19.040Z,7.2
2023-11-24T02:50:33.355Z,7.3
2023-11-24T02:51:47.653Z,7.3
2023-11-24T02:53:01.929Z,7.4
2023-11-24T02:55:30.665Z,7.4
2023-11-24T02:56:44.948Z,7.4
2023-11-24T02:57:59.228Z,7.5
2023-11-24T02:59:13.627Z,7.4
2023-11-24T03:00:27.942Z,7.4
2023-11-24T03:01:42.223Z,7.4
2023-11-24T03:02:56.504Z,7.4
2023-11-24T03:04:10.919Z,7.4
2023-11-24T03:06:39.532Z,7.4
2023-11-24T03:07:53.816Z,7.4
2023-11-24T03:09:08.212Z,7.4
2023-11-24T03:11:36.830Z,7.4
2023-11-24T03:12:51.098Z,7.4
2023-11-24T03:14:05.505Z,7.4
2023-11-24T03:15:19.826Z,7.4
2023-11-24T03:16:34.170Z,7.5
2023-11-24T03:17:47.568Z,7.5
2023-11-24T03:19:01.903Z,7.5
2023-11-24T03:20:16.248Z,7.4
2023-11-24T03:21:30.590Z,7.4
2023-11-24T03:22:44.000Z,7.5
2023-11-24T03:23:59.324Z,7.5
2023-11-24T03:25:13.669Z,7.5
2023-11-24T03:26:28.011Z,7.5
2023-11-24T03:27:42.338Z,7.6
2023-11-24T03:28:56.681Z,7.7
2023-11-24T03:30:11.081Z,7.7
2023-11-24T03:31:25.437Z,7.7
2023-11-24T03:32:39.765Z,7.7
2023-11-24T03:33:53.151Z,7.6
2023-11-24T03:35:07.564Z,7.6
2023-11-24T03:36:21.897Z,7.6
2023-11-24T03:37:35.311Z,7.6
2023-11-24T03:38:48.689Z,7.5
2023-11-24T03:40:03.023Z,7.5
2023-11-24T03:41:17.363Z,7.5
2023-11-24T03:42:31.698Z,7.5
2023-11-24T03:43:46.052Z,7.5
2023-11-24T03:45:00.458Z,7.5
2023-11-24T03:46:14.783Z,7.6
2023-11-24T03:47:28.202Z,7.6
2023-11-24T03:48:41.590Z,7.5
2023-11-24T03:49:55.913Z,7.5
2023-11-24T03:51:10.263Z,7.5
2023-11-24T03:52:24.605Z,7.5
2023-11-24T03:53:38.940Z,7.5
2023-11-24T03:54:53.345Z,7.5
2023-11-24T03:56:07.686Z,7.5
2023-11-24T03:57:22.011Z,7.5
2023-11-24T03:58:36.359Z,7.6
2023-11-24T03:59:50.692Z,7.6
2023-11-24T04:01:05.103Z,7.6
2023-11-24T04:02:19.431Z,7.5
2023-11-24T04:03:33.783Z,7.5
2023-11-24T04:04:47.166Z,7.5
2023-11-24T04:06:01.575Z,7.5
2023-11-24T04:07:15.907Z,7.4
2023-11-24T04:08:30.241Z,7.4
2023-11-24T04:09:44.585Z,7.4
2023-11-24T04:10:58.924Z,7.4
2023-11-24T04:12:13.322Z,7.4
2023-11-24T04:13:27.659Z,7.4
2023-11-24T04:14:41.015Z,7.4
2023-11-24T04:15:55.298Z,7.3
2023-11-24T04:17:09.699Z,7.3
2023-11-24T04:18:24.021Z,7.3
2023-11-24T04:19:38.314Z,7.2
2023-11-24T04:20:52.712Z,7.2
2023-11-24T04:22:07.119Z,7.2
2023-11-24T04:23:21.437Z,7.2
2023-11-24T04:24:35.733Z,7.2
2023-11-24T04:25:50.010Z,7.1
2023-11-24T04:27:04.413Z,7.1
2023-11-24T04:28:18.732Z,7
2023-11-24T04:29:33.020Z,7
2023-11-24T04:30:47.310Z,7
2023-11-24T04:32:01.712Z,7
2023-11-24T04:33:16.026Z,7
2023-11-24T04:34:30.319Z,7
2023-11-24T04:35:44.601Z,6.9
2023-11-24T04:36:59.009Z,6.9
2023-11-24T04:38:13.325Z,6.9
2023-11-24T04:39:27.617Z,6.9
2023-11-24T04:40:41.898Z,6.9
2023-11-24T04:41:56.297Z,6.9
2023-11-24T04:43:10.632Z,6.9
2023-11-24T04:44:24.912Z,6.9
2023-11-24T04:45:39.190Z,6.9
2023-11-24T04:46:53.595Z,6.9
2023-11-24T04:48:07.889Z,7
2023-11-24T04:49:22.176Z,7.1
2023-11-24T04:50:36.457Z,7.1
2023-11-24T04:51:50.860Z,7.1
2023-11-24T04:53:05.184Z,7.1
2023-11-24T04:54:19.454Z,7.1
2023-11-24T04:55:33.741Z,7.2
2023-11-24T04:56:48.160Z,7.2
2023-11-24T04:58:02.471Z,7.1
2023-11-24T04:59:16.764Z,7.1
2023-11-24T05:01:45.441Z,7.1
2023-11-24T05:02:59.773Z,7.1
2023-11-24T05:04:14.054Z,7.2
2023-11-24T05:05:28.000Z,7.2
2023-11-24T05:06:42.807Z,7.1
2023-11-24T05:07:57.144Z,7
2023-11-24T05:09:10.526Z,7
2023-11-24T05:10:24.854Z,6.9
2023-11-24T05:11:39.274Z,6.8
2023-11-24T05:12:53.615Z,6.8
2023-11-24T05:14:07.941Z,6.7
2023-11-24T05:15:22.284Z,6.7
2023-11-24T05:16:36.627Z,6.6
2023-11-24T05:17:51.025Z,6.6
2023-11-24T05:19:05.365Z,6.5
2023-11-24T05:20:19.714Z,6.5
2023-11-24T05:21:34.047Z,6.5
2023-11-24T05:22:48.392Z,6.5
2023-11-24T05:24:02.789Z,6.4
2023-11-24T05:25:17.120Z,6.5
2023-11-24T05:26:30.508Z,6.5
2023-11-24T05:27:44.845Z,6.5
2023-11-24T05:28:59.209Z,6.5
2023-11-24T05:30:13.546Z,6.6
2023-11-24T05:31:26.893Z,6.5
2023-11-24T05:32:41.179Z,6.5
2023-11-24T05:33:55.540Z,6.5
2023-11-24T05:35:09.862Z,6.5
2023-11-24T05:36:24.138Z,6.5
2023-11-24T05:37:38.357Z,6.5
2023-11-24T05:38:52.778Z,6.5
2023-11-24T05:41:21.366Z,6.5
2023-11-24T05:42:35.657Z,6.5
2023-11-24T05:43:50.055Z,6.5
2023-11-24T05:45:04.358Z,6.5
2023-11-24T05:46:18.651Z,6.5
2023-11-24T05:47:32.923Z,6.5
2023-11-24T05:48:47.338Z,6.5
2023-11-24T05:50:01.649Z,6.5
2023-11-24T05:51:16.055Z,6.5
2023-11-24T05:52:30.389Z,6.4
2023-11-24T05:53:44.655Z,6.4
2023-11-24T05:54:59.066Z,6.5
2023-11-24T05:56:13.353Z,6.5
2023-11-24T05:57:27.628Z,6.5
2023-11-24T05:58:41.910Z,6.5
2023-11-24T05:59:56.304Z,6.5
2023-11-24T06:01:10.576Z,6.5
2023-11-24T06:02:24.862Z,6.5
2023-11-24T06:03:39.138Z,6.5
2023-11-24T06:04:53.562Z,6.4
2023-11-24T06:06:07.876Z,6.5
2023-11-24T06:07:22.161Z,6.5
2023-11-24T06:08:36.439Z,6.5
2023-11-24T06:09:50.846Z,6.5
2023-11-24T06:11:05.123Z,6.4
2023-11-24T06:12:19.391Z,6.4
2023-11-24T06:13:33.678Z,6.5
2023-11-24T06:14:48.085Z,6.5
2023-11-24T06:16:02.413Z,6.5
2023-11-24T06:17:16.683Z,6.5
2023-11-24T06:18:30.962Z,6.5
2023-11-24T06:19:45.382Z,6.5
2023-11-24T06:20:59.698Z,6.5
2023-11-24T06:22:13.921Z,6.6
2023-11-24T06:23:28.156Z,6.6
2023-11-24T06:24:42.381Z,6.7
2023-11-24T06:25:56.674Z,6.7
2023-11-24T06:28:25.268Z,6.8
2023-11-24T06:30:53.805Z,6.7
2023-11-24T06:32:08.041Z,6.7
2023-11-24T06:33:22.274Z,6.7
2023-11-24T06:34:36.491Z,6.7
2023-11-24T06:35:50.710Z,6.7
2023-11-24T06:37:05.074Z,6.7
2023-11-24T06:38:19.360Z,6.7
2023-11-24T06:40:46.972Z,6.7
2023-11-24T06:42:01.283Z,6.6
2023-11-24T06:43:15.561Z,6.6
2023-11-24T06:44:29.851Z,6.7
2023-11-24T06:45:44.139Z,6.7
2023-11-24T06:46:58.417Z,6.8
2023-11-24T06:48:12.702Z,6.8
2023-11-24T06:49:26.985Z,6.8
2023-11-24T06:50:41.272Z,6.8
2023-11-24T06:51:55.568Z,6.8
2023-11-24T06:53:09.854Z,6.8
2023-11-24T06:54:24.141Z,6.7
2023-11-24T06:55:38.429Z,6.7
2023-11-24T06:56:51.769Z,6.6
2023-11-24T06:58:06.048Z,6.6
2023-11-24T06:59:20.355Z,6.5
2023-11-24T07:00:34.625Z,6.5
2023-11-24T07:01:48.912Z,6.5
2023-11-24T07:03:02.201Z,6.5
2023-11-24T07:04:16.510Z,6.5
2023-11-24T07:05:30.750Z,6.4
2023-11-24T07:06:44.984Z,6.4
2023-11-24T07:07:59.198Z,6.4
2023-11-24T07:09:13.419Z,6.4
2023-11-24T07:10:27.734Z,6.4
2023-11-24T07:11:41.968Z,6.4
2023-11-24T07:12:56.189Z,6.4
2023-11-24T07:14:10.424Z,6.4
2023-11-24T07:15:24.645Z,6.5
2023-11-24T07:16:38.958Z,6.5
2023-11-24T07:17:53.197Z,6.6
2023-11-24T07:19:07.415Z,6.6
2023-11-24T07:20:21.654Z,6.6
2023-11-24T07:21:35.872Z,6.6
2023-11-24T07:22:50.165Z,6.6
2023-11-24T07:24:04.417Z,6.6
2023-11-24T07:25:18.636Z,6.6
2023-11-24T07:26:32.859Z,6.6
2023-11-24T07:27:47.085Z,6.6
2023-11-24T07:29:01.387Z,6.7
2023-11-24T07:30:15.632Z,6.7
2023-11-24T07:31:29.856Z,6.7
2023-11-24T07:32:44.092Z,6.7
2023-11-24T07:33:58.374Z,6.7
2023-11-24T07:35:12.675Z,6.8
2023-11-24T07:36:26.964Z,6.8
2023-11-24T07:37:40.301Z,6.9
2023-11-24T07:38:54.589Z,6.9
2023-11-24T07:40:08.877Z,6.9
2023-11-24T07:41:23.174Z,6.8
2023-11-24T07:42:37.445Z,6.8
2023-11-24T07:43:51.725Z,6.8
2023-11-24T07:45:06.016Z,6.8
2023-11-24T07:46:20.320Z,6.8
2023-11-24T07:47:34.595Z,6.7
2023-11-24T07:48:48.889Z,6.7
2023-11-24T07:50:03.170Z,6.7
2023-11-24T07:51:17.448Z,6.6
2023-11-24T07:52:31.744Z,6.6
2023-11-24T07:53:46.037Z,6.7
2023-11-24T07:54:59.360Z,6.6
2023-11-24T07:56:13.644Z,6.6
2023-11-24T07:57:27.943Z,6.5
2023-11-24T07:58:42.238Z,6.4
2023-11-24T07:59:55.536Z,6.3
2023-11-24T08:01:09.755Z,6.3
2023-11-24T08:02:24.057Z,6.3
2023-11-24T08:03:38.292Z,6.3
2023-11-24T08:04:52.531Z,6.3
2023-11-24T08:06:06.746Z,6.4
2023-11-24T08:07:20.982Z,6.4
2023-11-24T08:08:35.282Z,6.5
2023-11-24T08:09:49.527Z,6.5
2023-11-24T08:11:03.877Z,6.5
2023-11-24T08:12:18.088Z,6.5
2023-11-24T08:13:32.316Z,6.5
2023-11-24T08:14:46.631Z,6.5
2023-11-24T08:16:00.873Z,6.6
2023-11-24T08:17:15.100Z,6.6
2023-11-24T08:18:29.307Z,6.6
2023-11-24T08:19:43.537Z,6.6
2023-11-24T08:20:57.842Z,6.6
2023-11-24T08:22:12.082Z,6.6
2023-11-24T08:23:26.311Z,6.6
2023-11-24T08:24:40.539Z,6.6
2023-11-24T08:25:54.758Z,6.6
2023-11-24T08:28:23.300Z,6.6
2023-11-24T08:29:37.527Z,6.6
2023-11-24T08:30:51.758Z,6.6
2023-11-24T08:32:05.983Z,6.5
2023-11-24T08:33:20.295Z,6.6
2023-11-24T08:34:34.522Z,6.6
2023-11-24T08:35:48.756Z,6.6
2023-11-24T08:37:02.973Z,6.5
2023-11-24T08:38:17.209Z,6.5
2023-11-24T08:39:31.508Z,6.6
2023-11-24T08:40:45.749Z,6.6
2023-11-24T08:42:00.126Z,6.6
2023-11-24T08:43:14.352Z,6.5
2023-11-24T08:44:28.564Z,6.6
2023-11-24T08:45:42.878Z,6.6
2023-11-24T08:46:57.105Z,6.6
2023-11-24T08:48:11.339Z,6.6
2023-11-24T08:49:25.559Z,6.6
2023-11-24T08:50:39.000Z,6.6
2023-11-24T08:51:54.095Z,6.6
2023-11-24T08:53:08.330Z,6.5
2023-11-24T08:54:22.560Z,6.5
2023-11-24T08:55:36.793Z,6.5
2023-11-24T08:56:51.013Z,6.5
2023-11-24T08:58:05.321Z,6.6
2023-11-24T08:59:19.558Z,6.6
2023-11-24T09:00:33.779Z,6.6
2023-11-24T09:03:02.242Z,6.6
2023-11-24T09:04:16.545Z,6.5
2023-11-24T09:05:30.784Z,6.4
2023-11-24T09:06:45.001Z,6.4
2023-11-24T09:07:59.241Z,6.4
2023-11-24T09:09:13.458Z,6.4
2023-11-24T09:10:27.754Z,6.5
2023-11-24T09:11:41.998Z,6.5
2023-11-24T09:12:56.288Z,6.5
2023-11-24T09:14:09.611Z,6.5
2023-11-24T09:15:23.915Z,6.5
2023-11-24T09:16:38.204Z,6.6
2023-11-24T09:17:52.491Z,6.6
2023-11-24T09:19:06.764Z,6.6
2023-11-24T09:20:21.047Z,6.5
2023-11-24T09:21:35.344Z,6.6
2023-11-24T09:22:49.630Z,6.6
2023-11-24T09:24:03.921Z,6.6
2023-11-24T09:25:18.202Z,6.6
2023-11-24T09:26:32.496Z,6.6
2023-11-24T09:27:46.796Z,6.5
2023-11-24T09:29:01.066Z,6.5
2023-11-24T09:30:14.397Z,6.5
2023-11-24T09:31:28.688Z,6.5
2023-11-24T09:33:57.276Z,6.4
2023-11-24T09:35:11.547Z,6.5
2023-11-24T09:36:25.846Z,6.4
2023-11-24T09:37:40.128Z,6.4
2023-11-24T09:38:54.420Z,6.3
2023-11-24T09:40:08.701Z,6.4
2023-11-24T09:41:22.001Z,6.3
2023-11-24T09:42:36.228Z,6.4
2023-11-24T09:43:50.531Z,6.4
2023-11-24T09:45:04.771Z,6.3
2023-11-24T09:46:19.006Z,6.4
2023-11-24T09:47:33.223Z,6.4
2023-11-24T09:48:47.448Z,6.4
2023-11-24T09:50:01.761Z,6.4
2023-11-24T09:52:30.219Z,6.4
2023-11-24T09:53:44.439Z,6.4
2023-11-24T09:54:58.675Z,6.4
2023-11-24T09:56:12.970Z,6.4
2023-11-24T09:57:27.206Z,6.3
2023-11-24T09:58:41.438Z,6.3
2023-11-24T09:59:55.674Z,6.4
2023-11-24T10:01:09.898Z,6.4
2023-11-24T10:02:24.200Z,6.4
2023-11-24T10:03:38.435Z,6.4
2023-11-24T10:04:52.666Z,6.4
2023-11-24T10:06:06.898Z,6.5
2023-11-24T10:07:21.119Z,6.5
2023-11-24T10:08:35.406Z,6.4
2023-11-24T10:09:49.662Z,6.4
2023-11-24T10:11:04.014Z,6.4
2023-11-24T10:12:18.229Z,6.4
2023-11-24T10:13:32.460Z,6.3
2023-11-24T10:14:46.763Z,6.3
2023-11-24T10:16:01.006Z,6.3
2023-11-24T10:17:15.220Z,6.3
2023-11-24T10:18:29.451Z,6.5
2023-11-24T10:19:43.674Z,7
2023-11-24T10:20:57.988Z,8.1
2023-11-24T10:22:12.216Z,9
2023-11-24T10:23:26.444Z,8.9
2023-11-24T10:24:40.671Z,9.3
2023-11-24T10:25:54.907Z,10.1
2023-11-24T10:28:23.445Z,10
2023-11-24T10:29:37.681Z,9.8
2023-11-24T10:30:51.900Z,9.3
2023-11-24T10:32:06.130Z,8.5
2023-11-24T10:33:20.428Z,8.2
2023-11-24T10:34:34.669Z,8.1
2023-11-24T10:35:48.890Z,7.8
2023-11-24T10:37:03.118Z,7.6
2023-11-24T10:38:17.339Z,7.4
2023-11-24T10:39:31.641Z,7.5
2023-11-24T10:40:45.894Z,7.3
2023-11-24T10:42:00.111Z,7.4
2023-11-24T10:43:14.349Z,7.4
2023-11-24T10:44:28.567Z,7.5
2023-11-24T10:45:42.857Z,7.5
2023-11-24T10:46:57.101Z,7.7
2023-11-24T10:48:11.335Z,7.6
2023-11-24T10:49:25.557Z,7.7
2023-11-24T10:50:39.784Z,7.5
2023-11-24T10:51:54.091Z,7.4
2023-11-24T10:53:08.329Z,7.4
2023-11-24T10:54:22.563Z,7.4
2023-11-24T10:55:36.788Z,7.4
2023-11-24T10:56:51.063Z,7.6
2023-11-24T10:58:05.361Z,7.7
2023-11-24T10:59:19.642Z,7.7
2023-11-24T11:00:34.059Z,7.7
2023-11-24T11:01:48.336Z,7.7
2023-11-24T11:03:02.631Z,7.5
2023-11-24T11:04:16.920Z,7.4
2023-11-24T11:05:31.209Z,7.3
2023-11-24T11:06:45.495Z,7.4
2023-11-24T11:07:59.783Z,7.4
2023-11-24T11:09:14.054Z,7.4
2023-11-24T11:10:28.355Z,7.3
2023-11-24T11:11:42.633Z,7.2
2023-11-24T11:12:56.931Z,7.2
2023-11-24T11:14:11.209Z,7.1
2023-11-24T11:15:25.492Z,7.2
2023-11-24T11:16:39.789Z,7.1
2023-11-24T11:17:54.070Z,7.1
2023-11-24T11:20:22.637Z,7
2023-11-24T11:21:36.938Z,7
2023-11-24T11:22:51.218Z,6.9
2023-11-24T11:24:05.514Z,7
2023-11-24T11:25:18.800Z,7.2
2023-11-24T11:26:33.034Z,7.3
2023-11-24T11:27:47.334Z,8.2
2023-11-24T11:29:01.568Z,9.2
2023-11-24T11:30:15.928Z,10.2
2023-11-24T11:31:30.160Z,10.2
2023-11-24T11:32:44.383Z,10.2
2023-11-24T11:33:58.686Z,10
2023-11-24T11:35:12.911Z,9.4
2023-11-24T11:36:27.151Z,9.1
2023-11-24T11:37:41.364Z,9.3
2023-11-24T11:38:55.595Z,9.8
2023-11-24T11:40:09.890Z,10.2
2023-11-24T11:41:24.146Z,10.4
2023-11-24T11:42:38.376Z,10.6
2023-11-24T11:43:52.584Z,10.7
2023-11-24T11:45:06.815Z,11
2023-11-24T11:46:21.111Z,10.2
2023-11-24T11:47:35.370Z,10.3
2023-11-24T11:48:49.579Z,10.2
2023-11-24T11:50:03.806Z,10.5
2023-11-24T11:51:18.046Z,10.4
2023-11-24T11:52:32.337Z,10.2
2023-11-24T11:53:46.580Z,10.6
2023-11-24T11:55:00.809Z,10.4
2023-11-24T11:57:29.263Z,9.2
2023-11-24T11:58:43.556Z,8.7
2023-11-24T11:59:57.803Z,8.5
2023-11-24T12:01:12.030Z,8.6
2023-11-24T12:02:26.260Z,9.3
2023-11-24T12:03:40.476Z,9.7
2023-11-24T12:04:54.774Z,9.6
2023-11-24T12:06:09.027Z,9.6
2023-11-24T12:07:23.247Z,9.5
2023-11-24T12:08:37.472Z,10
2023-11-24T12:09:51.714Z,10.1
2023-11-24T12:11:06.003Z,9.7
2023-11-24T12:12:20.255Z,9.2
2023-11-24T12:13:34.475Z,9.2
2023-11-24T12:14:48.691Z,9.2
2023-11-24T12:16:02.978Z,9.2
2023-11-24T12:17:17.288Z,9.1
2023-11-24T12:18:31.575Z,9
2023-11-24T12:19:44.928Z,9.1
2023-11-24T12:20:58.269Z,9.2
2023-11-24T12:22:12.548Z,9.2
2023-11-24T12:23:26.826Z,9
2023-11-24T12:25:55.405Z,8.3
2023-11-24T12:27:09.697Z,8.1
2023-11-24T12:28:23.985Z,8
2023-11-24T12:30:52.553Z,7.9
2023-11-24T12:32:06.834Z,7.8
2023-11-24T12:33:21.128Z,7.9
2023-11-24T12:34:35.408Z,7.9
2023-11-24T12:35:48.767Z,8
2023-11-24T12:37:02.100Z,7.9
2023-11-24T12:38:16.378Z,7.8
2023-11-24T12:39:30.659Z,7.8
2023-11-24T12:40:44.945Z,7.7
2023-11-24T12:41:59.223Z,7.6
2023-11-24T12:44:27.820Z,7.5
2023-11-24T12:45:42.091Z,7.5
2023-11-24T12:48:10.664Z,7.5
2023-11-24T12:49:24.962Z,7.5
2023-11-24T12:50:39.248Z,7.4
2023-11-24T12:51:52.611Z,7.3
2023-11-24T12:53:05.935Z,7.2
2023-11-24T12:54:20.210Z,7.2
2023-11-24T12:55:34.510Z,7.2
2023-11-24T12:56:48.780Z,7.2
2023-11-24T12:58:03.066Z,7.2
2023-11-24T12:59:17.000Z,7.1
2023-11-24T13:00:31.656Z,6.9
2023-11-24T13:01:45.941Z,6.9
2023-11-24T13:03:00.212Z,6.9
2023-11-24T13:04:13.564Z,6.9
2023-11-24T13:05:27.864Z,6.8
2023-11-24T13:06:41.194Z,6.8
2023-11-24T13:07:55.481Z,6.8
2023-11-24T13:09:09.772Z,6.8
2023-11-24T13:10:24.053Z,7
2023-11-24T13:11:38.348Z,7.1
2023-11-24T13:12:52.618Z,7.1
2023-11-24T13:14:06.907Z,7
2023-11-24T13:15:21.216Z,6.9
2023-11-24T13:16:35.480Z,6.8
2023-11-24T13:17:49.778Z,6.8
2023-11-24T13:19:03.136Z,6.8
2023-11-24T13:20:17.421Z,6.8
2023-11-24T13:21:31.701Z,6.8
2023-11-24T13:22:45.039Z,6.7
2023-11-24T13:23:59.333Z,6.7
2023-11-24T13:25:13.620Z,6.6
2023-11-24T13:26:27.914Z,7
2023-11-24T13:27:42.187Z,7.5
2023-11-24T13:28:56.467Z,7.6
2023-11-24T13:31:25.065Z,7.1
2023-11-24T13:33:53.630Z,7.2
2023-11-24T13:35:06.979Z,7.5
2023-11-24T13:36:21.273Z,7.7
2023-11-24T13:37:35.563Z,8.1
2023-11-24T13:38:48.901Z,8
2023-11-24T13:40:03.186Z,7.7
2023-11-24T13:41:17.475Z,7.6
2023-11-24T13:42:31.764Z,7.4
2023-11-24T13:43:46.053Z,7.2
2023-11-24T13:45:00.326Z,7.1
2023-11-24T13:46:14.609Z,7
2023-11-24T13:47:28.923Z,7
2023-11-24T13:48:43.197Z,7
2023-11-24T13:49:57.478Z,6.9
2023-11-24T13:51:10.842Z,6.9
2023-11-24T13:52:25.123Z,6.9
2023-11-24T13:53:39.424Z,6.9
2023-11-24T13:54:52.743Z,6.8
2023-11-24T13:56:07.039Z,6.8
2023-11-24T13:57:21.335Z,6.8
2023-11-24T13:58:35.618Z,6.9
2023-11-24T13:59:49.909Z,6.9
2023-11-24T14:01:04.193Z,7
2023-11-24T14:02:18.472Z,7.1
2023-11-24T14:03:32.764Z,7.2
2023-11-24T14:04:47.045Z,7.2
2023-11-24T14:06:01.325Z,7.2
2023-11-24T14:07:15.627Z,7.2
2023-11-24T14:08:29.911Z,7.3
2023-11-24T14:09:44.198Z,7.4
2023-11-24T14:10:58.477Z,7.5
2023-11-24T14:12:11.815Z,7.4
2023-11-24T14:13:26.094Z,7.3
2023-11-24T14:14:40.391Z,7.2
2023-11-24T14:15:54.692Z,7.1
2023-11-24T14:17:07.988Z,6.8
2023-11-24T14:18:22.202Z,6.6
2023-11-24T14:19:36.509Z,6.4
2023-11-24T14:20:50.738Z,6.1
2023-11-24T14:22:05.088Z,5.8
2023-11-24T14:23:19.315Z,5.6
2023-11-24T14:24:33.550Z,5.5
2023-11-24T14:25:47.855Z,5.4
2023-11-24T14:27:02.089Z,5.3
2023-11-24T14:28:16.309Z,5.2
2023-11-24T14:29:30.546Z,5.2
2023-11-24T14:30:44.761Z,5.1
2023-11-24T14:33:13.314Z,5.1
2023-11-24T14:34:27.535Z,5.1
2023-11-24T14:35:41.762Z,5.1
2023-11-24T14:36:56.003Z,5.1
2023-11-24T14:38:10.296Z,5.1
2023-11-24T14:39:24.529Z,5.1
2023-11-24T14:40:38.764Z,5
2023-11-24T14:43:07.225Z,5
2023-11-24T14:44:21.508Z,5
2023-11-24T14:45:35.750Z,5
2023-11-24T14:46:49.990Z,4.9
2023-11-24T14:48:04.218Z,5
2023-11-24T14:49:18.440Z,5
2023-11-24T14:50:32.732Z,4.9
2023-11-24T14:51:46.977Z,4.9
2023-11-24T14:53:01.216Z,4.9
2023-11-24T14:54:15.427Z,4.9
2023-11-24T14:55:29.653Z,4.9
2023-11-24T14:56:43.963Z,4.8
2023-11-24T14:57:58.193Z,4.9
2023-11-24T14:59:12.427Z,4.8
2023-11-24T15:00:26.651Z,4.9
2023-11-24T15:01:40.887Z,4.9
2023-11-24T15:02:55.174Z,4.9
2023-11-24T15:04:09.421Z,4.9
2023-11-24T15:05:23.654Z,4.9
2023-11-24T15:06:37.878Z,4.9
2023-11-24T15:09:06.468Z,4.8
2023-11-24T15:10:20.751Z,4.8
2023-11-24T15:11:34.077Z,4.9
2023-11-24T15:12:48.365Z,4.9
2023-11-24T15:14:02.667Z,4.9
2023-11-24T15:15:16.950Z,4.9
2023-11-24T15:16:31.233Z,4.9
2023-11-24T15:17:45.507Z,4.9
2023-11-24T15:18:59.803Z,4.9
2023-11-24T15:20:14.101Z,4.9
2023-11-24T15:21:28.379Z,5
2023-11-24T15:22:42.670Z,5
2023-11-24T15:23:56.970Z,5
2023-11-24T15:25:11.233Z,5
2023-11-24T15:26:25.535Z,5
2023-11-24T15:27:39.809Z,5
2023-11-24T15:28:53.139Z,5
2023-11-24T15:30:07.437Z,5
2023-11-24T15:31:21.736Z,5
2023-11-24T15:32:36.010Z,5.1
2023-11-24T15:33:49.317Z,5.1
2023-11-24T15:35:03.534Z,5.2
2023-11-24T15:36:17.843Z,5.1
2023-11-24T15:37:32.085Z,5.1
2023-11-24T15:38:46.299Z,5.1
2023-11-24T15:40:00.533Z,5.1
2023-11-24T15:41:14.752Z,5
2023-11-24T15:42:29.067Z,5
2023-11-24T15:43:43.292Z,5
2023-11-24T15:44:57.532Z,5
2023-11-24T15:47:25.985Z,5
2023-11-24T15:48:40.286Z,5
2023-11-24T15:49:54.518Z,5
2023-11-24T15:51:08.872Z,5.1
2023-11-24T15:52:23.000Z,5
2023-11-24T15:53:37.326Z,5.1
2023-11-24T15:54:51.634Z,5.1
2023-11-24T15:56:05.861Z,5.1
2023-11-24T15:58:34.379Z,5.1
2023-11-24T15:59:48.656Z,5.1
2023-11-24T16:01:03.066Z,5
2023-11-24T16:02:17.361Z,5.1
2023-11-24T16:03:31.641Z,5.1
2023-11-24T16:04:45.921Z,5.1
2023-11-24T16:06:00.272Z,5.2
2023-11-24T16:07:14.524Z,5.2
2023-11-24T16:08:28.741Z,5.2
2023-11-24T16:09:43.027Z,5.3
2023-11-24T16:10:57.420Z,5.2
2023-11-24T16:12:11.786Z,5.2
2023-11-24T16:14:40.389Z,5.2
2023-11-24T16:15:54.659Z,5.2
2023-11-24T16:17:09.078Z,5.2
2023-11-24T16:18:23.393Z,5.2
2023-11-24T16:19:37.674Z,5.2
2023-11-24T16:20:51.959Z,5.2
2023-11-24T16:22:06.374Z,5.1
2023-11-24T16:23:20.633Z,5.1
2023-11-24T16:24:34.928Z,5.1
2023-11-24T16:25:49.211Z,5.1
2023-11-24T16:27:03.619Z,5.1
2023-11-24T16:28:17.942Z,5.1
2023-11-24T16:29:32.220Z,5.1
2023-11-24T16:30:46.622Z,5.1
2023-11-24T16:32:00.911Z,5.1
2023-11-24T16:33:15.306Z,5.1
2023-11-24T16:34:29.643Z,5.1
2023-11-24T16:35:43.921Z,5.1
2023-11-24T16:36:58.237Z,5.1
2023-11-24T16:38:12.520Z,5.1
2023-11-24T16:39:26.934Z,5.1
2023-11-24T16:40:41.255Z,5.1
2023-11-24T16:41:55.537Z,5.1
2023-11-24T16:43:09.831Z,5.1
2023-11-24T16:44:24.231Z,5.2
2023-11-24T16:45:38.558Z,5.2
2023-11-24T16:46:52.827Z,5.2
2023-11-24T16:48:07.165Z,5.1
2023-11-24T16:49:21.431Z,5.1
2023-11-24T16:50:35.788Z,5.1
2023-11-24T16:51:50.059Z,5
2023-11-24T16:53:04.300Z,5
2023-11-24T16:54:18.578Z,5
2023-11-24T16:55:32.985Z,5
2023-11-24T16:56:47.314Z,5
2023-11-24T16:58:01.591Z,4.9
2023-11-24T16:59:15.870Z,4.9
2023-11-24T17:00:30.278Z,4.9
2023-11-24T17:01:44.591Z,4.9
2023-11-24T17:02:58.890Z,5
2023-11-24T17:04:13.161Z,5
2023-11-24T17:05:27.563Z,5.1
2023-11-24T17:06:41.898Z,5.1
2023-11-24T17:07:56.184Z,5.1
2023-11-24T17:09:10.455Z,5.2
2023-11-24T17:10:24.863Z,5.2
2023-11-24T17:11:39.196Z,5.2
2023-11-24T17:12:53.474Z,5.2
2023-11-24T17:14:07.746Z,5.2
2023-11-24T17:16:36.496Z,5.2
2023-11-24T17:17:49.875Z,5.2
2023-11-24T17:19:04.220Z,5.2
2023-11-24T17:20:18.630Z,5.2
2023-11-24T17:21:32.953Z,5.2
2023-11-24T17:24:01.642Z,5.2
2023-11-24T17:25:15.982Z,5.1
2023-11-24T17:26:30.336Z,5.1
2023-11-24T17:27:44.665Z,5
2023-11-24T17:28:59.015Z,5
2023-11-24T17:31:27.673Z,5
2023-11-24T17:32:42.084Z,4.9
2023-11-24T17:33:56.424Z,4.9
2023-11-24T17:35:09.832Z,4.8
2023-11-24T17:36:23.225Z,4.8
2023-11-24T17:37:37.514Z,4.8
2023-11-24T17:38:51.837Z,4.8
2023-11-24T17:40:06.181Z,4.8
2023-11-24T17:41:20.461Z,4.7
2023-11-24T17:42:34.877Z,4.7
2023-11-24T17:43:49.212Z,4.7
2023-11-24T17:45:03.543Z,4.7
2023-11-24T17:46:17.894Z,4.7